Time;durP1;ratioP1;P1;durP2;ratioP2;P2;SDS_P1;SDS_P2;PMS_P1;PMS_P2;Temp;Humidity;BMP_temperature;BMP_pressure;BME280_temperature;BME280_humidity;BME280_pressure;Samples;Min_cycle;Max_cycle;Signal;HPM_P1;HPM_P2
2022/07/18 00:00:08;;;;;;;4.80;4.30;;;;;;;21.30;78.73;96874.41;5044740;28;20229;-81
2022/07/18 00:02:35;;;;;;;5.25;4.20;;;;;;;21.26;79.09;96865.13;5051846;28;20302;-81
2022/07/18 00:05:03;;;;;;;4.38;4.07;;;;;;;21.29;78.97;96868.09;5038595;28;20222;-81
2022/07/18 00:07:30;;;;;;;4.20;3.83;;;;;;;21.18;78.63;96868.47;5069985;28;20202;-81
2022/07/18 00:09:57;;;;;;;6.05;4.50;;;;;;;21.06;79.01;96860.53;5078762;28;20302;-81
2022/07/18 00:12:24;;;;;;;4.82;4.43;;;;;;;20.91;80.09;96855.97;5045004;28;20263;-81
2022/07/18 00:14:51;;;;;;;4.93;4.38;;;;;;;20.86;80.74;96853.25;5052858;28;20214;-81
2022/07/18 00:17:20;;;;;;;4.63;4.22;;;;;;;20.94;81.36;96868.28;5052337;28;20222;-81
2022/07/18 00:19:47;;;;;;;4.43;4.03;;;;;;;20.98;82.20;96867.47;5050259;28;20198;-81
2022/07/18 00:22:14;;;;;;;4.13;3.78;;;;;;;21.02;81.76;96865.78;5052377;28;20224;-81
2022/07/18 00:24:42;;;;;;;5.32;4.07;;;;;;;21.10;81.53;96872.59;5050935;28;20209;-81
2022/07/18 00:27:09;;;;;;;6.82;4.03;;;;;;;21.11;82.81;96872.31;5049814;28;20254;-81
2022/07/18 00:29:38;;;;;;;4.90;4.38;;;;;;;21.08;83.03;96872.91;5049921;28;20321;-81
2022/07/18 00:32:06;;;;;;;6.45;4.45;;;;;;;20.99;81.98;96877.34;5052424;28;20246;-81
2022/07/18 00:34:36;;;;;;;5.38;4.50;;;;;;;21.04;82.12;96871.00;5055047;28;20233;-81
2022/07/18 00:37:04;;;;;;;4.45;4.05;;;;;;;21.07;80.84;96876.75;5063593;28;20207;-80
2022/07/18 00:39:31;;;;;;;4.68;4.10;;;;;;;21.03;80.55;96877.59;5043092;28;20297;-81
2022/07/18 00:41:58;;;;;;;5.35;4.18;;;;;;;21.03;80.98;96861.94;5081908;28;20249;-81
2022/07/18 00:44:28;;;;;;;4.70;4.22;;;;;;;21.06;80.32;96866.03;5051872;28;20212;-81
2022/07/18 00:46:57;;;;;;;4.75;4.25;;;;;;;21.09;78.86;96877.28;5054301;28;20233;-81
2022/07/18 00:49:25;;;;;;;4.90;4.15;;;;;;;21.04;79.34;96869.06;5052871;28;20216;-82
2022/07/18 00:51:54;;;;;;;5.97;4.00;;;;;;;21.11;80.19;96875.06;5042489;28;20229;-82
2022/07/18 00:54:22;;;;;;;5.80;4.38;;;;;;;21.18;80.51;96887.69;5040790;28;20257;-81
2022/07/18 00:56:50;;;;;;;6.40;4.50;;;;;;;21.15;80.00;96883.56;5051644;28;20293;-81
2022/07/18 00:59:18;;;;;;;4.50;4.10;;;;;;;21.04;80.77;96891.03;5052474;28;20206;-81
2022/07/18 01:01:47;;;;;;;5.13;4.43;;;;;;;20.82;82.10;96890.63;5052215;28;20221;-82
2022/07/18 01:04:18;;;;;;;4.63;4.22;;;;;;;20.74;83.24;96891.22;5049562;28;20210;-82
2022/07/18 01:06:45;;;;;;;7.28;4.80;;;;;;;20.64;83.40;96889.31;5045734;28;20276;-81
2022/07/18 01:09:14;;;;;;;6.65;4.80;;;;;;;20.60;84.41;96890.97;5046024;28;20223;-81
2022/07/18 01:11:42;;;;;;;5.22;4.78;;;;;;;20.59;84.51;96889.31;5050422;28;20289;-81
2022/07/18 01:14:09;;;;;;;4.32;3.92;;;;;;;20.52;85.09;96894.31;5039542;28;20209;-81
2022/07/18 01:16:36;;;;;;;4.63;4.22;;;;;;;20.53;85.64;96893.19;5049738;28;20252;-81
2022/07/18 01:19:04;;;;;;;4.80;4.20;;;;;;;20.57;85.80;96897.03;5046203;28;20203;-81
2022/07/18 01:21:33;;;;;;;4.50;4.10;;;;;;;20.57;85.63;96897.03;5077547;28;20218;-81
2022/07/18 01:24:00;;;;;;;5.35;4.57;;;;;;;20.52;86.20;96893.47;5044609;28;20211;-81
2022/07/18 01:26:27;;;;;;;5.10;4.43;;;;;;;20.52;86.89;96907.19;5052772;28;20286;-80
2022/07/18 01:28:55;;;;;;;4.68;4.25;;;;;;;20.43;86.61;96906.13;5075200;28;20225;-81
2022/07/18 01:31:22;;;;;;;4.60;4.20;;;;;;;20.37;86.37;96897.09;5052856;28;20233;-81
2022/07/18 01:33:49;;;;;;;4.47;3.92;;;;;;;20.32;86.99;96911.63;5048977;28;20207;-81
2022/07/18 01:36:16;;;;;;;5.43;4.70;;;;;;;20.23;86.66;96907.00;5047259;28;20213;-81
2022/07/18 01:38:44;;;;;;;6.10;4.88;;;;;;;20.15;87.71;96913.88;5066638;28;20265;-81
2022/07/18 01:41:12;;;;;;;4.53;4.13;;;;;;;20.09;88.66;96920.44;5051459;28;20219;-81
2022/07/18 01:43:41;;;;;;;5.07;4.60;;;;;;;19.94;88.88;96904.84;5045672;28;20241;-81
2022/07/18 01:46:09;;;;;;;4.53;4.15;;;;;;;19.80;89.92;96909.25;5045526;28;20206;-81
2022/07/18 01:48:38;;;;;;;7.07;4.53;;;;;;;19.65;90.83;96901.84;5074353;28;20255;-81
2022/07/18 01:51:09;;;;;;;5.55;4.50;;;;;;;19.59;91.51;96902.13;5049981;28;20210;-81
2022/07/18 01:53:37;;;;;;;5.23;4.77;;;;;;;19.59;91.43;96892.00;5054397;28;20266;-79
2022/07/18 01:56:07;;;;;;;6.32;4.60;;;;;;;19.70;90.64;96901.03;5060776;28;20229;-79
2022/07/18 01:58:34;;;;;;;5.60;5.03;;;;;;;19.71;90.19;96899.13;5054570;28;20199;-79
2022/07/18 02:01:01;;;;;;;5.10;4.60;;;;;;;19.58;90.66;96882.13;5066567;28;20204;-79
2022/07/18 02:03:28;;;;;;;4.97;4.47;;;;;;;19.46;90.92;96878.84;5058734;28;20230;-79
2022/07/18 02:05:55;;;;;;;5.97;4.53;;;;;;;19.35;91.29;96884.56;5063059;28;20234;-79
2022/07/18 02:08:22;;;;;;;5.13;4.63;;;;;;;19.27;92.14;96888.66;5060256;28;20237;-79
2022/07/18 02:10:49;;;;;;;6.03;4.60;;;;;;;19.27;92.41;96886.75;5064353;28;20198;-79
2022/07/18 02:13:20;;;;;;;7.23;4.37;;;;;;;19.34;91.83;96888.41;5064435;28;20264;-79
2022/07/18 02:15:47;;;;;;;4.93;4.50;;;;;;;19.43;90.31;96876.63;5079651;28;20214;-79
2022/07/18 02:18:14;;;;;;;5.03;4.53;;;;;;;19.59;89.48;96889.25;5066155;28;20251;-79
2022/07/18 02:20:41;;;;;;;8.47;4.30;;;;;;;19.61;88.88;96889.81;5064514;28;20211;-79
2022/07/18 02:23:08;;;;;;;6.25;4.95;;;;;;;19.67;88.94;96882.41;5066896;28;20209;-79
2022/07/18 02:25:35;;;;;;;5.20;4.70;;;;;;;19.64;89.63;96892.00;5062395;28;20217;-79
2022/07/18 02:28:02;;;;;;;6.97;4.60;;;;;;;19.59;88.92;96885.69;5056932;28;20229;-79
2022/07/18 02:30:31;;;;;;;5.00;4.40;;;;;;;19.59;88.04;96886.50;5048138;28;20210;-81
2022/07/18 02:32:58;;;;;;;4.80;4.30;;;;;;;19.62;88.24;96880.50;5051627;28;20306;-81
2022/07/18 02:35:26;;;;;;;5.03;4.53;;;;;;;19.63;88.54;96884.06;5045531;28;20276;-81
2022/07/18 02:37:53;;;;;;;5.80;4.57;;;;;;;19.61;89.24;96894.47;5072629;28;20194;-79
2022/07/18 02:40:20;;;;;;;5.60;4.70;;;;;;;19.48;88.83;96875.84;5064861;28;20225;-79
2022/07/18 02:42:47;;;;;;;7.47;4.77;;;;;;;19.49;88.85;96883.78;5063895;28;20232;-79
2022/07/18 02:45:14;;;;;;;5.00;4.50;;;;;;;19.44;88.96;96882.94;5064794;28;20234;-79
2022/07/18 02:47:43;;;;;;;5.03;4.53;;;;;;;19.45;88.71;96885.41;5053566;28;20210;-79
2022/07/18 02:50:11;;;;;;;6.60;4.50;;;;;;;19.41;88.80;96881.53;5063913;28;20214;-79
2022/07/18 02:52:40;;;;;;;5.17;4.67;;;;;;;19.36;88.48;96876.09;5057522;28;20282;-79
2022/07/18 02:55:08;;;;;;;5.33;4.23;;;;;;;19.40;88.22;96871.69;5058524;28;20198;-79
2022/07/18 02:57:36;;;;;;;5.03;4.53;;;;;;;19.43;88.00;96873.06;5061540;28;21002;-79
2022/07/18 03:00:05;;;;;;;4.77;4.33;;;;;;;19.49;88.33;96872.81;5054160;28;20210;-79
2022/07/18 03:02:32;;;;;;;4.67;4.23;;;;;;;19.52;87.61;96869.53;5063512;28;20213;-79
2022/07/18 03:05:00;;;;;;;4.60;4.20;;;;;;;19.53;87.35;96882.16;5050644;28;20266;-81
2022/07/18 03:07:28;;;;;;;4.60;4.20;;;;;;;19.53;87.38;96882.16;5044097;28;20213;-81
2022/07/18 03:09:55;;;;;;;5.97;4.15;;;;;;;19.57;87.72;96877.75;5048125;28;20238;-81
2022/07/18 03:12:22;;;;;;;6.90;4.68;;;;;;;19.54;88.51;96880.22;5047856;28;20287;-81
2022/07/18 03:14:50;;;;;;;4.20;3.90;;;;;;;19.60;86.38;96879.94;5049875;28;20229;-80
2022/07/18 03:17:17;;;;;;;5.07;4.65;;;;;;;19.68;86.75;96884.03;5048502;28;20233;-81
2022/07/18 03:19:44;;;;;;;6.50;4.53;;;;;;;19.69;85.11;96874.72;5044293;28;20312;-82
2022/07/18 03:22:13;;;;;;;6.83;4.30;;;;;;;19.72;85.92;96885.16;5046934;28;20213;-83
2022/07/18 03:24:40;;;;;;;5.10;4.60;;;;;;;19.66;85.71;96878.00;5042782;28;20217;-82
2022/07/18 03:27:07;;;;;;;6.20;4.95;;;;;;;19.69;86.83;96879.38;5047526;28;20268;-83
2022/07/18 03:29:34;;;;;;;6.20;4.40;;;;;;;19.60;87.88;96882.69;5047773;28;20295;-81
2022/07/18 03:32:01;;;;;;;4.93;4.53;;;;;;;19.59;88.50;96883.78;5033756;28;20227;-80
2022/07/18 03:34:28;;;;;;;5.10;4.57;;;;;;;19.60;88.72;96888.16;5046798;28;20206;-83
2022/07/18 03:36:55;;;;;;;4.63;3.90;;;;;;;19.54;89.19;96878.31;5045549;28;20216;-83
2022/07/18 03:39:23;;;;;;;4.90;4.25;;;;;;;19.53;89.56;96875.84;5037712;28;20216;-83
2022/07/18 03:41:51;;;;;;;4.88;4.40;;;;;;;19.52;89.94;96885.97;5032512;28;20238;-82
2022/07/18 03:44:18;;;;;;;5.32;4.03;;;;;;;19.50;89.46;96890.91;5046115;28;20226;-82
2022/07/18 03:46:45;;;;;;;5.33;4.83;;;;;;;19.49;89.73;96897.47;5038606;28;20581;-83
2022/07/18 03:49:12;;;;;;;5.13;4.63;;;;;;;19.46;89.87;96898.00;5039863;28;20305;-83
2022/07/18 03:51:39;;;;;;;5.10;4.60;;;;;;;19.39;90.11;96897.47;5064784;28;20207;-84
2022/07/18 03:54:07;;;;;;;6.72;5.40;;;;;;;19.40;89.80;96907.28;5044935;28;20245;-80
2022/07/18 03:56:35;;;;;;;6.37;5.30;;;;;;;19.37;90.18;96905.13;5047151;28;20244;-83
2022/07/18 03:59:02;;;;;;;6.80;4.83;;;;;;;19.29;90.83;96916.59;5047369;28;20506;-83
2022/07/18 04:01:29;;;;;;;7.03;4.93;;;;;;;19.29;91.26;96911.13;5035988;28;20209;-83
2022/07/18 04:03:56;;;;;;;6.40;5.30;;;;;;;19.25;91.46;96918.22;5041540;28;20204;-83
2022/07/18 04:06:24;;;;;;;6.60;5.23;;;;;;;19.23;91.73;96909.47;5042534;28;20198;-83
2022/07/18 04:08:51;;;;;;;8.20;5.17;;;;;;;19.18;92.94;96918.50;5046272;28;20201;-83
2022/07/18 04:11:19;;;;;;;6.80;4.63;;;;;;;19.17;93.87;96921.50;5043940;28;20218;-82
2022/07/18 04:13:48;;;;;;;6.70;5.10;;;;;;;19.17;94.10;96926.97;5036952;28;20296;-83
2022/07/18 04:16:15;;;;;;;7.07;5.10;;;;;;;19.14;93.60;96927.53;5040169;28;20222;-83
2022/07/18 04:18:42;;;;;;;8.07;5.47;;;;;;;19.11;94.29;96939.03;5043607;28;20207;-82
2022/07/18 04:21:09;;;;;;;5.70;5.10;;;;;;;19.10;93.62;96940.09;5047705;28;20253;-81
2022/07/18 04:23:36;;;;;;;6.60;5.00;;;;;;;19.06;93.73;96947.19;5046203;28;20280;-82
2022/07/18 04:26:04;;;;;;;5.23;4.73;;;;;;;19.07;94.93;96955.16;5043565;28;20219;-81
2022/07/18 04:28:31;;;;;;;6.53;5.07;;;;;;;19.07;95.09;96944.19;5044598;28;20230;-82
2022/07/18 04:31:00;;;;;;;5.27;4.63;;;;;;;19.02;95.63;96954.31;5044686;28;20210;-82
2022/07/18 04:33:27;;;;;;;7.20;5.30;;;;;;;18.97;96.18;96951.59;5041664;28;20210;-81
2022/07/18 04:35:55;;;;;;;6.78;5.30;;;;;;;18.96;96.88;96963.63;5043091;28;20614;-81
2022/07/18 04:38:22;;;;;;;10.23;5.73;;;;;;;18.90;96.83;96954.53;5047164;28;20214;-81
2022/07/18 04:40:49;;;;;;;5.90;5.27;;;;;;;18.83;97.17;96953.97;5042035;28;20264;-81
2022/07/18 04:43:16;;;;;;;7.27;5.77;;;;;;;18.80;97.60;96949.03;5037773;28;20210;-81
2022/07/18 04:45:43;;;;;;;5.87;5.27;;;;;;;18.84;97.68;96963.84;5044824;28;20210;-82
2022/07/18 04:48:12;;;;;;;9.30;5.23;;;;;;;18.85;96.98;96951.81;5045700;28;20216;-82
2022/07/18 04:50:39;;;;;;;5.37;4.80;;;;;;;18.85;96.65;96960.00;5043854;28;20214;-82
2022/07/18 04:53:06;;;;;;;6.17;4.83;;;;;;;18.79;96.60;96959.19;5038779;28;20233;-82
2022/07/18 04:55:33;;;;;;;8.87;4.93;;;;;;;18.74;97.01;96955.56;5047165;28;20206;-82
2022/07/18 04:58:00;;;;;;;5.60;5.00;;;;;;;18.50;99.10;96955.16;5045171;28;20290;-81
2022/07/18 05:00:28;;;;;;;9.23;5.27;;;;;;;18.44;98.82;96956.25;5048362;28;20202;-82
2022/07/18 05:02:56;;;;;;;6.93;5.27;;;;;;;18.46;99.00;96954.03;5046568;28;20194;-82
2022/07/18 05:05:27;;;;;;;6.97;5.30;;;;;;;18.56;98.68;96954.09;5042434;28;20205;-82
2022/07/18 05:07:55;;;;;;;5.87;5.37;;;;;;;18.61;97.58;96950.59;5044023;28;20230;-81
2022/07/18 05:10:24;;;;;;;7.43;5.40;;;;;;;18.68;97.66;96949.28;5043060;28;20205;-82
2022/07/18 05:12:52;;;;;;;5.17;4.67;;;;;;;18.76;96.83;96956.13;5046014;28;20218;-81
2022/07/18 05:15:23;;;;;;;5.17;4.63;;;;;;;18.75;97.48;96955.31;5043377;28;20219;-82
2022/07/18 05:17:51;;;;;;;12.93;5.30;;;;;;;18.78;96.89;96951.22;5049598;28;20194;-82
2022/07/18 05:20:22;;;;;;;8.90;5.30;;;;;;;18.69;96.64;96947.38;5049677;28;20227;-82
2022/07/18 05:22:52;;;;;;;7.50;4.77;;;;;;;18.57;97.10;96939.38;5076834;28;20203;-82
2022/07/18 05:25:19;;;;;;;6.47;5.17;;;;;;;18.59;97.42;96948.13;5046163;28;20202;-84
2022/07/18 05:27:46;;;;;;;7.90;5.53;;;;;;;18.65;96.81;96952.53;5080451;28;20273;-83
2022/07/18 05:30:15;;;;;;;8.07;4.90;;;;;;;18.67;97.09;96933.94;5047000;28;20245;-83
2022/07/18 05:32:44;;;;;;;8.57;5.23;;;;;;;18.73;97.06;96938.34;5046725;28;20218;-83
2022/07/18 05:35:12;;;;;;;8.90;5.57;;;;;;;18.75;96.29;96946.28;5041946;28;20271;-83
2022/07/18 05:37:40;;;;;;;7.97;5.00;;;;;;;18.82;95.83;96941.38;5047377;28;20222;-84
2022/07/18 05:40:11;;;;;;;12.23;5.47;;;;;;;18.93;95.63;96942.25;5044290;28;20218;-83
2022/07/18 05:42:38;;;;;;;7.67;4.90;;;;;;;18.97;95.11;96943.38;5040305;28;20207;-83
2022/07/18 05:45:07;;;;;;;6.13;5.00;;;;;;;19.02;94.34;96946.94;5047193;28;20227;-84
2022/07/18 05:47:34;;;;;;;5.90;5.10;;;;;;;18.98;95.53;96944.97;5049159;28;20201;-83
2022/07/18 05:50:01;;;;;;;6.07;4.80;;;;;;;18.90;95.59;96938.94;5045283;28;20281;-81
2022/07/18 05:52:28;;;;;;;6.97;4.60;;;;;;;18.80;95.17;96946.28;5037694;28;20229;-80
2022/07/18 05:54:55;;;;;;;7.60;4.93;;;;;;;18.72;95.14;96933.94;5046011;28;20213;-81
2022/07/18 05:57:24;;;;;;;7.23;4.80;;;;;;;18.71;96.07;96943.28;5037666;28;20219;-81
2022/07/18 05:59:51;;;;;;;6.87;5.23;;;;;;;18.68;96.78;96938.34;5047626;28;20202;-81
2022/07/18 06:02:19;;;;;;;7.67;5.07;;;;;;;18.77;97.39;96939.47;5049260;28;20207;-81
2022/07/18 06:04:46;;;;;;;7.77;4.60;;;;;;;18.90;96.04;96949.91;5047083;28;20227;-82
2022/07/18 06:07:13;;;;;;;13.80;5.20;;;;;;;18.95;94.91;96945.53;5053660;28;20217;-81
2022/07/18 06:09:40;;;;;;;6.57;4.73;;;;;;;18.98;96.01;96939.50;5046153;28;20297;-81
2022/07/18 06:12:08;;;;;;;7.73;4.70;;;;;;;19.03;95.59;96936.81;5064842;28;20206;-81
2022/07/18 06:14:36;;;;;;;5.57;4.97;;;;;;;18.98;96.13;96928.56;5048941;28;20218;-81
2022/07/18 06:17:03;;;;;;;5.00;4.50;;;;;;;19.04;98.00;96928.34;5046844;28;20249;-81
2022/07/18 06:19:31;;;;;;;5.10;4.57;;;;;;;19.09;98.11;96922.03;5046412;28;20221;-81
2022/07/18 06:21:59;;;;;;;5.70;4.60;;;;;;;19.21;98.14;96930.84;5047490;28;20203;-81
2022/07/18 06:24:26;;;;;;;5.40;4.23;;;;;;;19.28;97.78;96925.91;5035633;28;20298;-81
2022/07/18 06:26:53;;;;;;;6.90;4.50;;;;;;;19.31;96.67;96922.59;5051448;28;20217;-80
2022/07/18 06:29:20;;;;;;;7.97;4.70;;;;;;;19.29;94.28;96924.81;5048969;28;20301;-81
2022/07/18 06:31:48;;;;;;;9.90;4.88;;;;;;;19.31;93.54;96922.59;5048160;28;20210;-80
2022/07/18 06:34:16;;;;;;;7.50;4.70;;;;;;;19.31;95.34;96921.81;5078191;28;20288;-81
2022/07/18 06:36:43;;;;;;;9.07;5.00;;;;;;;19.35;97.02;96923.72;5047887;28;20212;-80
2022/07/18 06:39:11;;;;;;;6.95;4.78;;;;;;;19.35;97.09;96918.25;5040270;28;20199;-81
2022/07/18 06:41:39;;;;;;;6.47;4.80;;;;;;;19.43;96.56;96914.97;5043679;28;20209;-81
2022/07/18 06:44:14;;;;;;;4.50;4.10;;;;;;;19.34;97.79;96910.31;5045662;28;20225;-80
2022/07/18 06:46:41;;;;;;;5.03;4.53;;;;;;;19.31;98.63;96908.91;5038435;28;20198;-81
2022/07/18 06:49:10;;;;;;;6.23;4.83;;;;;;;19.28;99.69;96895.78;5044022;28;20210;-80
2022/07/18 06:51:37;;;;;;;5.20;4.70;;;;;;;19.28;97.94;96893.06;5042103;28;20207;-80
2022/07/18 06:54:04;;;;;;;5.00;4.55;;;;;;;19.31;97.39;96899.91;5050945;28;20226;-81
2022/07/18 06:56:32;;;;;;;7.07;4.97;;;;;;;19.31;95.44;96889.75;5047978;28;20221;-80
2022/07/18 06:58:59;;;;;;;5.30;4.57;;;;;;;19.44;97.01;96888.41;5038801;28;20222;-81
2022/07/18 07:01:26;;;;;;;5.10;4.60;;;;;;;19.43;96.88;96884.03;5073350;28;20221;-80
2022/07/18 07:03:53;;;;;;;5.22;4.70;;;;;;;19.49;98.25;96883.78;5047505;28;20248;-81
2022/07/18 07:06:22;;;;;;;4.80;4.27;;;;;;;19.49;98.76;96883.78;5046814;28;20202;-80
2022/07/18 07:08:49;;;;;;;4.15;3.75;;;;;;;19.42;98.72;96879.63;5057368;28;20198;-80
2022/07/18 07:11:16;;;;;;;4.45;4.05;;;;;;;19.42;97.73;96874.16;5036827;28;20206;-80
2022/07/18 07:13:43;;;;;;;4.30;3.90;;;;;;;19.44;97.44;96870.06;5046190;28;20225;-80
2022/07/18 07:16:10;;;;;;;4.47;4.07;;;;;;;19.51;97.57;96867.91;5072853;28;20195;-80
2022/07/18 07:18:37;;;;;;;4.78;4.30;;;;;;;19.52;99.12;96858.59;5046670;28;20197;-81
2022/07/18 07:21:05;;;;;;;5.65;5.13;;;;;;;19.81;98.72;96860.75;5049302;28;20202;-82
2022/07/18 07:23:33;;;;;;;4.47;4.03;;;;;;;20.32;96.63;96856.78;5037428;28;20202;-82
2022/07/18 07:26:01;;;;;;;5.03;4.32;;;;;;;20.89;92.86;96857.34;5047123;28;20263;-83
2022/07/18 07:28:28;;;;;;;5.20;4.70;;;;;;;21.25;90.19;96849.75;5044160;28;20233;-82
2022/07/18 07:30:55;;;;;;;4.50;4.10;;;;;;;21.59;87.00;96842.31;5046090;28;20209;-83
2022/07/18 07:33:22;;;;;;;4.38;3.50;;;;;;;21.94;84.41;96848.59;5047768;28;20213;-83
2022/07/18 07:35:49;;;;;;;6.22;3.40;;;;;;;22.31;81.05;96846.00;5040280;28;20306;-83
2022/07/18 07:38:18;;;;;;;4.18;3.85;;;;;;;22.62;77.83;96839.03;5038404;28;20215;-84
2022/07/18 07:40:48;;;;;;;5.65;3.63;;;;;;;23.01;75.81;96841.53;5044643;28;20206;-83
2022/07/18 07:43:17;;;;;;;3.97;3.58;;;;;;;23.24;71.59;96837.03;5047717;28;20216;-83
2022/07/18 07:45:50;;;;;;;4.55;3.58;;;;;;;23.47;70.56;96837.25;5046788;28;20232;-82
2022/07/18 07:48:17;;;;;;;4.05;3.05;;;;;;;23.73;70.04;96835.72;5047552;28;20217;-81
2022/07/18 07:50:44;;;;;;;8.30;3.60;;;;;;;23.97;68.94;96824.53;5049288;28;20221;-83
2022/07/18 07:53:12;;;;;;;4.15;3.65;;;;;;;24.39;67.51;96829.00;5047294;28;20229;-83
2022/07/18 07:55:39;;;;;;;5.18;3.60;;;;;;;24.71;64.78;96834.38;5048632;28;20219;-83
2022/07/18 07:58:09;;;;;;;6.32;4.60;;;;;;;25.10;59.57;96825.50;5049919;28;20266;-83
2022/07/18 08:00:36;;;;;;;7.18;4.95;;;;;;;25.26;57.91;96834.28;5046357;28;20195;-83
2022/07/18 08:03:07;;;;;;;12.38;4.88;;;;;;;25.47;56.16;96831.84;5064236;28;20238;-83
2022/07/18 08:05:38;;;;;;;6.45;4.65;;;;;;;25.46;55.57;96832.97;5045521;28;20211;-83
2022/07/18 08:08:06;;;;;;;5.40;4.82;;;;;;;25.41;56.87;96830.34;5075223;28;20209;-83
2022/07/18 08:10:33;;;;;;;8.45;5.07;;;;;;;25.49;57.88;96830.41;5043763;28;20281;-83
2022/07/18 08:13:00;;;;;;;5.80;4.00;;;;;;;25.63;58.19;96828.41;5066771;28;20202;-82
2022/07/18 08:15:29;;;;;;;7.43;4.47;;;;;;;25.90;57.19;96838.50;5047964;28;20232;-83
2022/07/18 08:17:56;;;;;;;5.25;4.70;;;;;;;26.08;56.22;96822.00;5049242;28;20213;-83
2022/07/18 08:20:24;;;;;;;5.07;4.53;;;;;;;26.29;55.36;96834.97;5038398;28;20203;-83
2022/07/18 08:22:56;;;;;;;6.80;4.78;;;;;;;26.40;55.08;96821.66;5044765;28;20260;-83
2022/07/18 08:25:24;;;;;;;6.60;4.65;;;;;;;26.57;53.99;96827.25;5046571;28;20198;-83
2022/07/18 08:27:52;;;;;;;5.68;4.57;;;;;;;26.73;54.69;96827.63;5032141;28;20205;-82
2022/07/18 08:30:19;;;;;;;8.57;4.60;;;;;;;26.84;54.20;96820.66;5033954;28;20195;-83
2022/07/18 08:32:48;;;;;;;4.60;4.22;;;;;;;26.90;54.30;96827.66;5048269;28;20212;-83
2022/07/18 08:35:16;;;;;;;6.57;4.40;;;;;;;27.06;54.40;96816.94;5034801;28;20223;-82
2022/07/18 08:37:43;;;;;;;5.63;4.53;;;;;;;27.17;53.51;96820.22;5039462;28;20202;-83
2022/07/18 08:40:11;;;;;;;6.72;4.60;;;;;;;27.29;53.66;96820.41;5043431;28;20203;-83
2022/07/18 08:42:38;;;;;;;6.57;4.47;;;;;;;27.33;54.52;96819.41;5048017;28;20288;-83
2022/07/18 08:45:06;;;;;;;5.85;4.38;;;;;;;27.34;54.69;96809.13;5040576;28;20202;-83
2022/07/18 08:47:33;;;;;;;6.40;4.50;;;;;;;27.59;54.56;96816.66;5042803;28;20217;-82
2022/07/18 08:50:03;;;;;;;5.55;4.40;;;;;;;27.58;52.55;96819.75;5048298;28;20212;-83
2022/07/18 08:52:30;;;;;;;5.13;4.45;;;;;;;27.70;53.01;96817.94;5047998;28;20205;-83
2022/07/18 08:54:58;;;;;;;4.95;4.45;;;;;;;27.77;52.33;96811.88;5046112;28;20291;-83
2022/07/18 08:57:25;;;;;;;5.82;4.65;;;;;;;27.79;51.80;96810.41;5035676;28;20231;-83
2022/07/18 08:59:52;;;;;;;5.82;4.50;;;;;;;27.74;52.41;96810.59;5071839;28;20210;-83
2022/07/18 09:02:19;;;;;;;6.10;4.32;;;;;;;27.70;51.53;96806.84;5079777;28;20210;-83
2022/07/18 09:04:46;;;;;;;7.05;4.80;;;;;;;27.50;52.43;96811.06;5044165;28;20202;-83
2022/07/18 09:07:27;;;;;;;8.65;4.63;;;;;;;27.75;53.44;96816.94;5044564;28;20199;-83
2022/07/18 09:09:57;;;;;;;6.55;4.80;;;;;;;27.95;50.54;96824.59;5048371;28;20213;-83
2022/07/18 09:12:25;;;;;;;4.72;4.15;;;;;;;28.03;49.25;96817.38;5050581;28;20217;-83
2022/07/18 09:14:52;;;;;;;6.03;4.38;;;;;;;28.05;49.78;96815.91;5043007;28;20232;-83
2022/07/18 09:17:21;;;;;;;5.82;4.25;;;;;;;28.20;48.02;96803.47;5040963;28;20288;-84
2022/07/18 09:19:59;;;;;;;4.57;4.18;;;;;;;28.39;48.00;96812.22;5042155;28;20281;-83
2022/07/18 09:22:33;;;;;;;5.00;4.53;;;;;;;28.46;47.25;96800.56;5046768;28;20198;-83
2022/07/18 09:25:05;;;;;;;5.85;4.53;;;;;;;28.57;46.65;96811.00;5076245;28;20257;-83
2022/07/18 09:27:38;;;;;;;5.90;4.00;;;;;;;28.70;46.88;96806.31;5043574;28;20199;-83
2022/07/18 09:30:21;;;;;;;4.50;4.10;;;;;;;28.70;44.80;96805.50;5045931;28;20234;-83
2022/07/18 09:32:52;;;;;;;4.95;4.45;;;;;;;28.79;45.25;96803.53;5033506;28;20214;-83
2022/07/18 09:35:22;;;;;;;5.18;3.85;;;;;;;28.91;44.30;96803.63;5041476;28;20227;-84
2022/07/18 09:38:02;;;;;;;4.13;3.72;;;;;;;29.03;43.18;96803.69;5038899;28;20230;-83
2022/07/18 09:40:32;;;;;;;3.97;3.67;;;;;;;28.97;42.92;96805.84;5042516;28;20206;-83
2022/07/18 09:43:01;;;;;;;5.10;3.70;;;;;;;28.95;43.17;96790.66;5070673;28;20213;-83
2022/07/18 09:45:31;;;;;;;5.35;3.80;;;;;;;29.06;43.01;96791.06;5048728;28;20243;-83
2022/07/18 09:48:02;;;;;;;4.28;3.85;;;;;;;29.15;43.26;96792.66;5045455;28;20221;-83
2022/07/18 09:50:32;;;;;;;4.18;3.78;;;;;;;29.19;42.71;96785.22;5038993;28;20234;-83
2022/07/18 09:53:09;;;;;;;4.50;4.10;;;;;;;29.25;43.92;96783.09;5072744;28;20218;-83
2022/07/18 09:55:42;;;;;;;4.55;3.95;;;;;;;29.30;43.22;96780.06;5047828;28;20218;-82
2022/07/18 09:58:10;;;;;;;4.40;4.00;;;;;;;29.33;42.76;96774.66;5055546;28;20223;-83
2022/07/18 10:00:40;;;;;;;5.35;4.30;;;;;;;29.33;44.51;96771.88;5052316;28;20206;-83
2022/07/18 10:03:08;;;;;;;4.50;3.83;;;;;;;29.41;43.76;96775.75;5047722;28;20213;-83
2022/07/18 10:05:38;;;;;;;4.60;3.90;;;;;;;29.44;43.35;96774.25;5047275;28;20209;-83
2022/07/18 10:08:09;;;;;;;4.63;3.75;;;;;;;29.52;42.96;96774.16;5050575;28;20206;-83
2022/07/18 10:10:38;;;;;;;5.68;3.80;;;;;;;29.64;43.25;96777.00;5047059;28;20207;-83
2022/07/18 10:13:06;;;;;;;6.35;3.90;;;;;;;29.74;43.10;96767.41;5042682;28;20208;-83
2022/07/18 10:15:36;;;;;;;4.30;3.97;;;;;;;29.87;42.46;96760.72;5045557;28;20249;-83
2022/07/18 10:18:05;;;;;;;4.85;4.43;;;;;;;29.97;42.11;96765.88;5063754;28;20229;-83
2022/07/18 10:20:36;;;;;;;5.90;4.30;;;;;;;30.11;41.79;96760.00;5050384;28;20202;-84
2022/07/18 10:23:15;;;;;;;7.35;4.20;;;;;;;30.17;41.16;96757.78;5046540;28;20338;-82
2022/07/18 10:25:42;;;;;;;4.97;4.53;;;;;;;30.09;41.76;96754.75;5040567;28;20277;-84
2022/07/18 10:28:13;;;;;;;4.50;4.05;;;;;;;30.12;42.76;96760.78;5047523;28;20237;-83
2022/07/18 10:30:45;;;;;;;4.50;4.10;;;;;;;30.27;42.01;96763.72;5038766;28;20293;-83
2022/07/18 10:33:38;;;;;;;5.50;4.30;;;;;;;30.28;41.91;96756.97;5048544;28;20209;-84
2022/07/18 10:36:09;;;;;;;4.30;3.90;;;;;;;30.19;42.26;96763.81;5044992;28;20313;-83
2022/07/18 10:38:38;;;;;;;5.18;4.68;;;;;;;30.03;44.32;96755.31;5047456;28;20291;-83
2022/07/18 10:41:08;;;;;;;5.28;4.75;;;;;;;30.21;45.05;96756.72;5044249;28;20198;-85
2022/07/18 10:43:41;;;;;;;5.00;4.55;;;;;;;30.24;43.06;96752.44;5053897;28;20209;-84
2022/07/18 10:46:09;;;;;;;4.60;4.20;;;;;;;30.35;43.55;96760.00;5045951;28;20217;-84
2022/07/18 10:48:57;;;;;;;5.60;4.35;;;;;;;30.41;42.82;96757.78;5034194;28;20226;-83
2022/07/18 10:51:45;;;;;;;8.00;4.75;;;;;;;30.48;41.91;96763.59;5058442;28;20265;-83
2022/07/18 10:54:13;;;;;;;5.15;4.65;;;;;;;30.68;42.98;96757.09;5040810;28;20244;-83
2022/07/18 10:57:09;;;;;;;4.82;4.32;;;;;;;30.79;42.13;96754.66;5041959;28;20245;-84
2022/07/18 10:59:39;;;;;;;6.75;4.70;;;;;;;30.70;43.61;96754.78;5043569;28;20206;-84
2022/07/18 11:02:08;;;;;;;5.25;4.72;;;;;;;30.62;43.83;96757.69;5049567;28;20198;-83
2022/07/18 11:04:38;;;;;;;6.30;4.63;;;;;;;30.42;43.18;96737.94;5039606;28;20206;-83
2022/07/18 11:07:11;;;;;;;7.38;4.60;;;;;;;30.68;43.79;96743.16;5048912;28;20215;-83
2022/07/18 11:09:42;;;;;;;6.38;4.32;;;;;;;30.92;43.64;96738.72;5047268;28;20205;-83
2022/07/18 11:12:30;;;;;;;5.43;4.93;;;;;;;30.91;43.58;96731.50;5037312;28;20221;-83
2022/07/18 11:15:02;;;;;;;5.00;4.60;;;;;;;30.88;44.17;96735.00;5046399;28;20313;-83
2022/07/18 11:17:55;;;;;;;5.57;5.05;;;;;;;30.88;44.65;96735.00;5041123;28;20235;-84
2022/07/18 11:20:27;;;;;;;5.40;4.88;;;;;;;31.10;44.72;96728.94;5045998;28;20199;-83
2022/07/18 11:22:55;;;;;;;5.13;4.72;;;;;;;31.34;43.99;96725.22;5069305;28;20297;-83
2022/07/18 11:25:26;;;;;;;6.65;5.07;;;;;;;31.52;42.97;96724.56;5047731;28;20202;-83
2022/07/18 11:27:53;;;;;;;7.28;5.20;;;;;;;31.59;42.62;96724.75;5049949;28;20213;-83
2022/07/18 11:30:22;;;;;;;6.47;5.30;;;;;;;31.46;42.25;96709.25;5042170;28;20285;-84
2022/07/18 11:32:49;;;;;;;7.30;5.22;;;;;;;31.57;42.86;96727.09;5038880;28;20194;-84
2022/07/18 11:35:22;;;;;;;4.63;4.18;;;;;;;31.82;42.16;96722.19;5041158;28;20249;-81
2022/07/18 11:37:50;;;;;;;5.35;4.80;;;;;;;31.62;41.09;96717.69;5040155;28;20206;-82
2022/07/18 11:40:18;;;;;;;5.15;4.75;;;;;;;31.74;41.06;96709.22;5039684;28;20202;-81